sensor_id;sensor_type;location;lat;lon;timestamp;P1;durP1;ratioP1;P2;durP2;ratioP2
58089;SDS011;45149;50.976;6.120;2022-08-20T00:01:58;13.52;;;12.23;;
58089;SDS011;45149;50.976;6.120;2022-08-20T00:04:24;14.23;;;12.35;;
58089;SDS011;45149;50.976;6.120;2022-08-20T00:06:49;15.48;;;13.98;;
58089;SDS011;45149;50.976;6.120;2022-08-20T00:09:14;15.65;;;14.05;;
58089;SDS011;45149;50.976;6.120;2022-08-20T00:11:40;15.80;;;14.13;;
58089;SDS011;45149;50.976;6.120;2022-08-20T00:14:05;15.48;;;14.07;;
58089;SDS011;45149;50.976;6.120;2022-08-20T00:16:31;17.15;;;15.50;;
58089;SDS011;45149;50.976;6.120;2022-08-20T00:18:59;15.55;;;13.98;;
58089;SDS011;45149;50.976;6.120;2022-08-20T00:21:25;16.92;;;15.32;;
58089;SDS011;45149;50.976;6.120;2022-08-20T00:23:51;15.02;;;13.52;;
58089;SDS011;45149;50.976;6.120;2022-08-20T00:26:18;12.80;;;11.60;;
58089;SDS011;45149;50.976;6.120;2022-08-20T00:28:44;13.82;;;12.43;;
58089;SDS011;45149;50.976;6.120;2022-08-20T00:31:11;13.70;;;12.50;;
58089;SDS011;45149;50.976;6.120;2022-08-20T00:33:39;13.48;;;12.27;;
58089;SDS011;45149;50.976;6.120;2022-08-20T00:36:04;12.98;;;11.88;;
58089;SDS011;45149;50.976;6.120;2022-08-20T00:38:33;11.88;;;10.77;;
58089;SDS011;45149;50.976;6.120;2022-08-20T00:40:59;11.90;;;10.80;;
58089;SDS011;45149;50.976;6.120;2022-08-20T00:43:27;11.82;;;10.77;;
58089;SDS011;45149;50.976;6.120;2022-08-20T00:46:31;13.18;;;11.80;;
58089;SDS011;45149;50.976;6.120;2022-08-20T00:48:57;14.63;;;13.23;;
58089;SDS011;45149;50.976;6.120;2022-08-20T00:54:03;15.80;;;14.38;;
58089;SDS011;45149;50.976;6.120;2022-08-20T00:56:33;17.23;;;15.48;;
58089;SDS011;45149;50.976;6.120;2022-08-20T00:59:00;16.95;;;15.07;;
58089;SDS011;45149;50.976;6.120;2022-08-20T01:01:27;16.10;;;14.43;;
58089;SDS011;45149;50.976;6.120;2022-08-20T01:03:53;16.83;;;15.25;;
58089;SDS011;45149;50.976;6.120;2022-08-20T01:06:21;17.55;;;15.25;;
58089;SDS011;45149;50.976;6.120;2022-08-20T01:08:48;15.48;;;13.88;;
58089;SDS011;45149;50.976;6.120;2022-08-20T01:11:14;14.88;;;13.38;;
58089;SDS011;45149;50.976;6.120;2022-08-20T01:13:41;16.27;;;14.68;;
58089;SDS011;45149;50.976;6.120;2022-08-20T01:16:11;14.90;;;13.40;;
58089;SDS011;45149;50.976;6.120;2022-08-20T01:18:43;16.75;;;15.05;;
58089;SDS011;45149;50.976;6.120;2022-08-20T01:21:11;17.25;;;15.60;;
58089;SDS011;45149;50.976;6.120;2022-08-20T01:26:29;17.42;;;15.63;;
58089;SDS011;45149;50.976;6.120;2022-08-20T01:28:59;18.48;;;15.57;;
58089;SDS011;45149;50.976;6.120;2022-08-20T01:31:32;15.95;;;14.45;;
58089;SDS011;45149;50.976;6.120;2022-08-20T01:34:01;17.60;;;15.95;;
58089;SDS011;45149;50.976;6.120;2022-08-20T01:36:33;17.00;;;15.40;;
58089;SDS011;45149;50.976;6.120;2022-08-20T01:39:02;18.55;;;16.25;;
58089;SDS011;45149;50.976;6.120;2022-08-20T01:41:40;18.50;;;16.60;;
58089;SDS011;45149;50.976;6.120;2022-08-20T01:44:27;18.67;;;16.95;;
58089;SDS011;45149;50.976;6.120;2022-08-20T01:46:53;18.42;;;16.27;;
58089;SDS011;45149;50.976;6.120;2022-08-20T01:49:24;20.20;;;17.45;;
58089;SDS011;45149;50.976;6.120;2022-08-20T01:51:54;21.50;;;18.30;;
58089;SDS011;45149;50.976;6.120;2022-08-20T01:54:22;20.98;;;18.88;;
58089;SDS011;45149;50.976;6.120;2022-08-20T01:56:52;20.95;;;18.52;;
58089;SDS011;45149;50.976;6.120;2022-08-20T01:59:23;21.73;;;19.63;;
58089;SDS011;45149;50.976;6.120;2022-08-20T02:01:49;22.23;;;19.83;;
58089;SDS011;45149;50.976;6.120;2022-08-20T02:04:14;21.83;;;19.52;;
58089;SDS011;45149;50.976;6.120;2022-08-20T02:06:43;23.00;;;19.80;;
58089;SDS011;45149;50.976;6.120;2022-08-20T02:09:17;22.38;;;20.08;;
58089;SDS011;45149;50.976;6.120;2022-08-20T02:11:42;22.05;;;19.55;;
58089;SDS011;45149;50.976;6.120;2022-08-20T02:14:09;22.90;;;20.55;;
58089;SDS011;45149;50.976;6.120;2022-08-20T02:16:36;23.20;;;20.77;;
58089;SDS011;45149;50.976;6.120;2022-08-20T02:19:07;21.13;;;18.90;;
58089;SDS011;45149;50.976;6.120;2022-08-20T02:21:36;24.45;;;21.92;;
58089;SDS011;45149;50.976;6.120;2022-08-20T02:24:05;23.80;;;21.48;;
58089;SDS011;45149;50.976;6.120;2022-08-20T02:26:30;24.58;;;21.98;;
58089;SDS011;45149;50.976;6.120;2022-08-20T02:28:55;26.50;;;23.63;;
58089;SDS011;45149;50.976;6.120;2022-08-20T02:31:21;25.42;;;22.73;;
58089;SDS011;45149;50.976;6.120;2022-08-20T02:33:48;23.02;;;20.80;;
58089;SDS011;45149;50.976;6.120;2022-08-20T02:36:14;24.05;;;21.65;;
58089;SDS011;45149;50.976;6.120;2022-08-20T02:38:43;24.30;;;21.80;;
58089;SDS011;45149;50.976;6.120;2022-08-20T02:41:08;25.17;;;22.33;;
58089;SDS011;45149;50.976;6.120;2022-08-20T02:43:34;26.15;;;23.45;;
58089;SDS011;45149;50.976;6.120;2022-08-20T02:46:01;26.52;;;23.73;;
58089;SDS011;45149;50.976;6.120;2022-08-20T02:48:27;27.88;;;23.83;;
58089;SDS011;45149;50.976;6.120;2022-08-20T02:50:54;27.08;;;24.38;;
58089;SDS011;45149;50.976;6.120;2022-08-20T02:53:21;27.65;;;24.75;;
58089;SDS011;45149;50.976;6.120;2022-08-20T02:55:48;28.92;;;25.85;;
58089;SDS011;45149;50.976;6.120;2022-08-20T02:58:14;27.02;;;24.17;;
58089;SDS011;45149;50.976;6.120;2022-08-20T03:00:40;29.20;;;25.92;;
58089;SDS011;45149;50.976;6.120;2022-08-20T03:03:06;30.55;;;25.77;;
58089;SDS011;45149;50.976;6.120;2022-08-20T03:05:32;29.67;;;26.05;;
58089;SDS011;45149;50.976;6.120;2022-08-20T03:07:58;29.55;;;26.52;;
58089;SDS011;45149;50.976;6.120;2022-08-20T03:10:25;29.50;;;26.40;;
58089;SDS011;45149;50.976;6.120;2022-08-20T03:12:53;29.08;;;25.98;;
58089;SDS011;45149;50.976;6.120;2022-08-20T03:15:18;28.92;;;25.13;;
58089;SDS011;45149;50.976;6.120;2022-08-20T03:17:44;30.95;;;27.65;;
58089;SDS011;45149;50.976;6.120;2022-08-20T03:20:10;30.77;;;27.38;;
58089;SDS011;45149;50.976;6.120;2022-08-20T03:22:36;30.50;;;27.17;;
58089;SDS011;45149;50.976;6.120;2022-08-20T03:25:02;34.53;;;27.80;;
58089;SDS011;45149;50.976;6.120;2022-08-20T03:27:28;31.15;;;27.90;;
58089;SDS011;45149;50.976;6.120;2022-08-20T03:29:54;29.92;;;26.65;;
58089;SDS011;45149;50.976;6.120;2022-08-20T03:32:19;29.45;;;26.40;;
58089;SDS011;45149;50.976;6.120;2022-08-20T03:34:44;31.30;;;28.10;;
58089;SDS011;45149;50.976;6.120;2022-08-20T03:37:10;32.30;;;26.75;;
58089;SDS011;45149;50.976;6.120;2022-08-20T03:39:36;32.05;;;28.00;;
58089;SDS011;45149;50.976;6.120;2022-08-20T03:42:02;33.42;;;29.88;;
58089;SDS011;45149;50.976;6.120;2022-08-20T03:44:28;30.80;;;27.50;;
58089;SDS011;45149;50.976;6.120;2022-08-20T03:46:53;31.40;;;28.17;;
58089;SDS011;45149;50.976;6.120;2022-08-20T03:49:19;33.70;;;29.45;;
58089;SDS011;45149;50.976;6.120;2022-08-20T03:51:44;31.48;;;28.23;;
58089;SDS011;45149;50.976;6.120;2022-08-20T03:54:10;33.83;;;30.13;;
58089;SDS011;45149;50.976;6.120;2022-08-20T03:56:35;31.67;;;28.27;;
58089;SDS011;45149;50.976;6.120;2022-08-20T03:59:00;31.77;;;28.48;;
58089;SDS011;45149;50.976;6.120;2022-08-20T04:01:26;32.13;;;28.83;;
58089;SDS011;45149;50.976;6.120;2022-08-20T04:03:52;33.55;;;29.95;;
58089;SDS011;45149;50.976;6.120;2022-08-20T04:06:17;32.05;;;28.73;;
58089;SDS011;45149;50.976;6.120;2022-08-20T04:08:42;32.03;;;28.73;;
58089;SDS011;45149;50.976;6.120;2022-08-20T04:11:08;31.88;;;28.67;;
58089;SDS011;45149;50.976;6.120;2022-08-20T04:13:33;30.90;;;27.77;;
58089;SDS011;45149;50.976;6.120;2022-08-20T04:16:02;32.60;;;29.27;;
58089;SDS011;45149;50.976;6.120;2022-08-20T04:18:33;31.13;;;28.00;;
58089;SDS011;45149;50.976;6.120;2022-08-20T04:21:01;32.30;;;29.08;;
58089;SDS011;45149;50.976;6.120;2022-08-20T04:23:27;32.28;;;28.83;;
58089;SDS011;45149;50.976;6.120;2022-08-20T04:25:54;31.92;;;28.63;;
58089;SDS011;45149;50.976;6.120;2022-08-20T04:28:21;32.13;;;28.73;;
58089;SDS011;45149;50.976;6.120;2022-08-20T04:30:51;32.35;;;28.98;;
58089;SDS011;45149;50.976;6.120;2022-08-20T04:33:18;32.30;;;29.00;;
58089;SDS011;45149;50.976;6.120;2022-08-20T04:35:44;32.30;;;28.25;;
58089;SDS011;45149;50.976;6.120;2022-08-20T04:38:11;30.83;;;27.58;;
58089;SDS011;45149;50.976;6.120;2022-08-20T04:40:40;31.15;;;27.98;;
58089;SDS011;45149;50.976;6.120;2022-08-20T04:43:18;32.92;;;29.45;;
58089;SDS011;45149;50.976;6.120;2022-08-20T04:45:45;31.50;;;28.33;;
58089;SDS011;45149;50.976;6.120;2022-08-20T04:48:11;31.33;;;28.05;;
58089;SDS011;45149;50.976;6.120;2022-08-20T04:50:38;29.75;;;26.63;;
58089;SDS011;45149;50.976;6.120;2022-08-20T04:53:05;28.38;;;25.48;;
58089;SDS011;45149;50.976;6.120;2022-08-20T04:55:34;30.13;;;26.95;;
58089;SDS011;45149;50.976;6.120;2022-08-20T04:58:03;30.23;;;26.30;;
58089;SDS011;45149;50.976;6.120;2022-08-20T05:00:31;30.10;;;26.42;;
58089;SDS011;45149;50.976;6.120;2022-08-20T05:02:57;28.10;;;25.20;;
58089;SDS011;45149;50.976;6.120;2022-08-20T05:05:22;29.38;;;26.42;;
58089;SDS011;45149;50.976;6.120;2022-08-20T05:07:48;29.95;;;26.75;;
58089;SDS011;45149;50.976;6.120;2022-08-20T05:10:14;31.55;;;28.23;;
58089;SDS011;45149;50.976;6.120;2022-08-20T05:12:42;31.95;;;28.75;;
58089;SDS011;45149;50.976;6.120;2022-08-20T05:15:09;31.75;;;28.30;;
58089;SDS011;45149;50.976;6.120;2022-08-20T05:17:36;31.15;;;26.88;;
58089;SDS011;45149;50.976;6.120;2022-08-20T05:20:02;29.60;;;26.60;;
58089;SDS011;45149;50.976;6.120;2022-08-20T05:22:28;31.88;;;27.10;;
58089;SDS011;45149;50.976;6.120;2022-08-20T05:24:54;30.20;;;26.70;;
58089;SDS011;45149;50.976;6.120;2022-08-20T05:27:20;29.50;;;26.40;;
58089;SDS011;45149;50.976;6.120;2022-08-20T05:29:50;29.33;;;26.25;;
58089;SDS011;45149;50.976;6.120;2022-08-20T05:32:17;29.27;;;26.17;;
58089;SDS011;45149;50.976;6.120;2022-08-20T05:34:42;29.98;;;26.30;;
58089;SDS011;45149;50.976;6.120;2022-08-20T05:37:08;29.65;;;26.50;;
58089;SDS011;45149;50.976;6.120;2022-08-20T05:39:33;28.63;;;25.58;;
58089;SDS011;45149;50.976;6.120;2022-08-20T05:41:59;30.13;;;25.63;;
58089;SDS011;45149;50.976;6.120;2022-08-20T05:44:24;29.30;;;25.98;;
58089;SDS011;45149;50.976;6.120;2022-08-20T05:46:50;28.35;;;24.88;;
58089;SDS011;45149;50.976;6.120;2022-08-20T05:49:16;30.00;;;26.10;;
58089;SDS011;45149;50.976;6.120;2022-08-20T05:51:43;28.98;;;25.38;;
58089;SDS011;45149;50.976;6.120;2022-08-20T05:54:09;30.45;;;25.73;;
58089;SDS011;45149;50.976;6.120;2022-08-20T05:56:36;30.23;;;26.98;;
58089;SDS011;45149;50.976;6.120;2022-08-20T05:59:01;36.42;;;29.45;;
58089;SDS011;45149;50.976;6.120;2022-08-20T06:01:29;33.95;;;27.42;;
58089;SDS011;45149;50.976;6.120;2022-08-20T06:03:55;37.50;;;27.38;;
58089;SDS011;45149;50.976;6.120;2022-08-20T06:06:39;39.88;;;28.00;;
58089;SDS011;45149;50.976;6.120;2022-08-20T06:09:04;35.13;;;27.08;;
58089;SDS011;45149;50.976;6.120;2022-08-20T06:11:30;34.60;;;27.08;;
58089;SDS011;45149;50.976;6.120;2022-08-20T06:13:55;40.55;;;27.98;;
58089;SDS011;45149;50.976;6.120;2022-08-20T06:16:21;38.53;;;27.95;;
58089;SDS011;45149;50.976;6.120;2022-08-20T06:18:46;36.75;;;27.33;;
58089;SDS011;45149;50.976;6.120;2022-08-20T06:21:12;37.88;;;28.20;;
58089;SDS011;45149;50.976;6.120;2022-08-20T06:23:37;36.13;;;27.15;;
58089;SDS011;45149;50.976;6.120;2022-08-20T06:26:02;40.30;;;26.20;;
58089;SDS011;45149;50.976;6.120;2022-08-20T06:28:31;37.47;;;26.60;;
58089;SDS011;45149;50.976;6.120;2022-08-20T06:30:56;34.85;;;25.85;;
58089;SDS011;45149;50.976;6.120;2022-08-20T06:33:22;35.28;;;25.33;;
58089;SDS011;45149;50.976;6.120;2022-08-20T06:35:47;35.42;;;25.95;;
58089;SDS011;45149;50.976;6.120;2022-08-20T06:38:13;35.22;;;24.77;;
58089;SDS011;45149;50.976;6.120;2022-08-20T06:40:38;36.70;;;24.25;;
58089;SDS011;45149;50.976;6.120;2022-08-20T06:43:04;38.67;;;25.98;;
58089;SDS011;45149;50.976;6.120;2022-08-20T06:45:31;38.78;;;23.42;;
58089;SDS011;45149;50.976;6.120;2022-08-20T06:47:57;37.83;;;24.02;;
58089;SDS011;45149;50.976;6.120;2022-08-20T06:50:26;36.70;;;23.65;;
58089;SDS011;45149;50.976;6.120;2022-08-20T06:52:55;36.22;;;23.92;;
58089;SDS011;45149;50.976;6.120;2022-08-20T06:55:21;41.67;;;25.88;;
58089;SDS011;45149;50.976;6.120;2022-08-20T06:57:46;38.35;;;25.83;;
58089;SDS011;45149;50.976;6.120;2022-08-20T07:00:20;39.65;;;24.73;;
58089;SDS011;45149;50.976;6.120;2022-08-20T07:02:45;35.88;;;25.33;;
58089;SDS011;45149;50.976;6.120;2022-08-20T07:05:12;34.72;;;23.80;;
58089;SDS011;45149;50.976;6.120;2022-08-20T07:07:37;37.72;;;26.52;;
58089;SDS011;45149;50.976;6.120;2022-08-20T07:10:04;41.63;;;27.00;;
58089;SDS011;45149;50.976;6.120;2022-08-20T07:12:31;37.80;;;27.00;;
58089;SDS011;45149;50.976;6.120;2022-08-20T07:14:58;37.70;;;26.95;;
58089;SDS011;45149;50.976;6.120;2022-08-20T07:17:24;37.30;;;26.40;;
58089;SDS011;45149;50.976;6.120;2022-08-20T07:19:49;36.35;;;27.52;;
58089;SDS011;45149;50.976;6.120;2022-08-20T07:22:15;38.47;;;26.25;;
58089;SDS011;45149;50.976;6.120;2022-08-20T07:24:40;36.95;;;27.58;;
58089;SDS011;45149;50.976;6.120;2022-08-20T07:27:05;37.20;;;26.50;;
58089;SDS011;45149;50.976;6.120;2022-08-20T07:29:31;35.38;;;27.73;;
58089;SDS011;45149;50.976;6.120;2022-08-20T07:32:15;41.70;;;27.48;;
58089;SDS011;45149;50.976;6.120;2022-08-20T07:34:58;40.92;;;27.85;;
58089;SDS011;45149;50.976;6.120;2022-08-20T07:37:25;39.80;;;27.48;;
58089;SDS011;45149;50.976;6.120;2022-08-20T07:39:50;39.22;;;26.73;;
58089;SDS011;45149;50.976;6.120;2022-08-20T07:42:17;40.15;;;28.05;;
58089;SDS011;45149;50.976;6.120;2022-08-20T07:44:42;39.17;;;27.17;;
58089;SDS011;45149;50.976;6.120;2022-08-20T07:47:08;38.50;;;26.73;;
58089;SDS011;45149;50.976;6.120;2022-08-20T07:49:36;39.63;;;26.65;;
58089;SDS011;45149;50.976;6.120;2022-08-20T07:52:03;37.13;;;25.63;;
58089;SDS011;45149;50.976;6.120;2022-08-20T07:54:29;39.30;;;27.00;;
58089;SDS011;45149;50.976;6.120;2022-08-20T07:56:58;38.10;;;26.38;;
58089;SDS011;45149;50.976;6.120;2022-08-20T07:59:26;39.28;;;26.48;;
58089;SDS011;45149;50.976;6.120;2022-08-20T08:01:52;34.90;;;25.50;;
58089;SDS011;45149;50.976;6.120;2022-08-20T08:04:17;36.22;;;25.05;;
58089;SDS011;45149;50.976;6.120;2022-08-20T08:06:42;41.38;;;26.13;;
58089;SDS011;45149;50.976;6.120;2022-08-20T08:09:10;39.58;;;25.67;;
58089;SDS011;45149;50.976;6.120;2022-08-20T08:11:39;40.80;;;25.65;;
58089;SDS011;45149;50.976;6.120;2022-08-20T08:14:07;36.08;;;25.10;;
58089;SDS011;45149;50.976;6.120;2022-08-20T08:16:34;39.42;;;25.40;;
58089;SDS011;45149;50.976;6.120;2022-08-20T08:19:00;38.55;;;26.73;;
58089;SDS011;45149;50.976;6.120;2022-08-20T08:21:29;43.75;;;27.00;;
58089;SDS011;45149;50.976;6.120;2022-08-20T08:23:54;39.95;;;24.60;;
58089;SDS011;45149;50.976;6.120;2022-08-20T08:26:20;39.10;;;25.75;;
58089;SDS011;45149;50.976;6.120;2022-08-20T08:28:46;40.42;;;25.45;;
58089;SDS011;45149;50.976;6.120;2022-08-20T08:31:12;40.80;;;25.63;;
58089;SDS011;45149;50.976;6.120;2022-08-20T08:33:38;38.35;;;25.92;;
58089;SDS011;45149;50.976;6.120;2022-08-20T08:36:05;35.00;;;24.35;;
58089;SDS011;45149;50.976;6.120;2022-08-20T08:38:36;40.38;;;25.48;;
58089;SDS011;45149;50.976;6.120;2022-08-20T08:41:10;40.42;;;25.13;;
58089;SDS011;45149;50.976;6.120;2022-08-20T08:43:40;44.40;;;26.10;;
58089;SDS011;45149;50.976;6.120;2022-08-20T08:46:11;38.85;;;25.00;;
58089;SDS011;45149;50.976;6.120;2022-08-20T08:48:42;37.60;;;24.00;;
58089;SDS011;45149;50.976;6.120;2022-08-20T08:53:48;38.00;;;23.98;;
58089;SDS011;45149;50.976;6.120;2022-08-20T08:56:18;37.55;;;24.15;;
58089;SDS011;45149;50.976;6.120;2022-08-20T08:58:44;36.08;;;24.00;;
58089;SDS011;45149;50.976;6.120;2022-08-20T09:01:11;38.85;;;23.58;;
58089;SDS011;45149;50.976;6.120;2022-08-20T09:03:40;34.42;;;22.88;;
58089;SDS011;45149;50.976;6.120;2022-08-20T09:06:08;40.40;;;23.15;;
58089;SDS011;45149;50.976;6.120;2022-08-20T09:08:42;32.55;;;23.05;;
58089;SDS011;45149;50.976;6.120;2022-08-20T09:11:12;34.67;;;23.38;;
58089;SDS011;45149;50.976;6.120;2022-08-20T09:13:38;33.70;;;22.80;;
58089;SDS011;45149;50.976;6.120;2022-08-20T09:16:04;35.97;;;21.08;;
58089;SDS011;45149;50.976;6.120;2022-08-20T09:18:30;32.58;;;21.45;;
58089;SDS011;45149;50.976;6.120;2022-08-20T09:20:56;33.55;;;22.73;;
58089;SDS011;45149;50.976;6.120;2022-08-20T09:23:21;34.67;;;22.60;;
58089;SDS011;45149;50.976;6.120;2022-08-20T09:25:47;35.15;;;23.10;;
58089;SDS011;45149;50.976;6.120;2022-08-20T09:28:12;33.53;;;22.63;;
58089;SDS011;45149;50.976;6.120;2022-08-20T09:30:37;38.65;;;23.95;;
58089;SDS011;45149;50.976;6.120;2022-08-20T09:33:03;34.03;;;22.35;;
58089;SDS011;45149;50.976;6.120;2022-08-20T09:35:28;38.08;;;22.92;;
58089;SDS011;45149;50.976;6.120;2022-08-20T09:37:54;33.03;;;23.23;;
58089;SDS011;45149;50.976;6.120;2022-08-20T09:40:20;33.40;;;21.35;;
58089;SDS011;45149;50.976;6.120;2022-08-20T09:42:46;35.20;;;22.05;;
58089;SDS011;45149;50.976;6.120;2022-08-20T09:45:11;32.33;;;20.85;;
58089;SDS011;45149;50.976;6.120;2022-08-20T09:47:38;28.98;;;21.08;;
58089;SDS011;45149;50.976;6.120;2022-08-20T09:50:04;29.58;;;21.17;;
58089;SDS011;45149;50.976;6.120;2022-08-20T09:52:31;33.30;;;21.73;;
58089;SDS011;45149;50.976;6.120;2022-08-20T09:55:01;27.45;;;20.15;;
58089;SDS011;45149;50.976;6.120;2022-08-20T09:57:38;30.33;;;19.95;;
58089;SDS011;45149;50.976;6.120;2022-08-20T10:00:05;30.85;;;21.30;;
58089;SDS011;45149;50.976;6.120;2022-08-20T10:02:36;31.45;;;21.90;;
58089;SDS011;45149;50.976;6.120;2022-08-20T10:05:02;36.45;;;22.98;;
58089;SDS011;45149;50.976;6.120;2022-08-20T10:07:27;37.75;;;22.35;;
58089;SDS011;45149;50.976;6.120;2022-08-20T10:09:53;29.27;;;23.05;;
58089;SDS011;45149;50.976;6.120;2022-08-20T10:12:18;30.00;;;22.77;;
58089;SDS011;45149;50.976;6.120;2022-08-20T10:14:43;32.60;;;24.83;;
58089;SDS011;45149;50.976;6.120;2022-08-20T10:17:09;29.65;;;23.73;;
58089;SDS011;45149;50.976;6.120;2022-08-20T10:19:34;30.15;;;21.85;;
58089;SDS011;45149;50.976;6.120;2022-08-20T10:22:00;30.67;;;21.33;;
58089;SDS011;45149;50.976;6.120;2022-08-20T10:24:26;27.25;;;21.35;;
58089;SDS011;45149;50.976;6.120;2022-08-20T10:26:56;24.02;;;18.58;;
58089;SDS011;45149;50.976;6.120;2022-08-20T10:29:23;24.85;;;19.17;;
58089;SDS011;45149;50.976;6.120;2022-08-20T10:31:49;25.48;;;19.13;;
58089;SDS011;45149;50.976;6.120;2022-08-20T10:34:14;23.80;;;17.58;;
58089;SDS011;45149;50.976;6.120;2022-08-20T10:36:40;23.08;;;15.25;;
58089;SDS011;45149;50.976;6.120;2022-08-20T10:39:06;20.80;;;14.52;;
58089;SDS011;45149;50.976;6.120;2022-08-20T10:41:31;21.65;;;13.55;;
58089;SDS011;45149;50.976;6.120;2022-08-20T10:43:57;19.63;;;13.13;;
58089;SDS011;45149;50.976;6.120;2022-08-20T10:46:22;18.48;;;13.15;;
58089;SDS011;45149;50.976;6.120;2022-08-20T10:48:48;16.40;;;11.43;;
58089;SDS011;45149;50.976;6.120;2022-08-20T10:51:13;18.50;;;10.80;;
58089;SDS011;45149;50.976;6.120;2022-08-20T10:53:39;15.88;;;11.20;;
58089;SDS011;45149;50.976;6.120;2022-08-20T10:56:04;18.45;;;10.13;;
58089;SDS011;45149;50.976;6.120;2022-08-20T10:58:30;17.73;;;10.15;;
58089;SDS011;45149;50.976;6.120;2022-08-20T11:00:55;15.68;;;10.27;;
58089;SDS011;45149;50.976;6.120;2022-08-20T11:03:20;15.18;;;9.10;;
58089;SDS011;45149;50.976;6.120;2022-08-20T11:05:46;14.23;;;10.23;;
58089;SDS011;45149;50.976;6.120;2022-08-20T11:08:12;14.63;;;8.98;;
58089;SDS011;45149;50.976;6.120;2022-08-20T11:10:38;13.60;;;8.55;;
58089;SDS011;45149;50.976;6.120;2022-08-20T11:13:05;13.40;;;8.30;;
58089;SDS011;45149;50.976;6.120;2022-08-20T11:15:32;17.77;;;8.40;;
58089;SDS011;45149;50.976;6.120;2022-08-20T11:18:00;12.65;;;8.18;;
58089;SDS011;45149;50.976;6.120;2022-08-20T11:20:26;14.07;;;8.80;;
58089;SDS011;45149;50.976;6.120;2022-08-20T11:22:52;13.70;;;7.97;;
58089;SDS011;45149;50.976;6.120;2022-08-20T11:25:18;12.65;;;7.68;;
58089;SDS011;45149;50.976;6.120;2022-08-20T11:27:45;14.40;;;7.90;;
58089;SDS011;45149;50.976;6.120;2022-08-20T11:30:15;15.65;;;7.50;;
58089;SDS011;45149;50.976;6.120;2022-08-20T11:32:46;12.95;;;6.93;;
58089;SDS011;45149;50.976;6.120;2022-08-20T11:35:11;13.32;;;6.40;;
58089;SDS011;45149;50.976;6.120;2022-08-20T11:37:37;11.43;;;6.35;;
58089;SDS011;45149;50.976;6.120;2022-08-20T11:40:03;14.23;;;6.35;;
58089;SDS011;45149;50.976;6.120;2022-08-20T11:42:30;10.60;;;6.15;;
58089;SDS011;45149;50.976;6.120;2022-08-20T11:44:55;12.18;;;6.72;;
58089;SDS011;45149;50.976;6.120;2022-08-20T11:47:25;11.82;;;5.88;;
58089;SDS011;45149;50.976;6.120;2022-08-20T11:49:56;12.85;;;5.65;;
58089;SDS011;45149;50.976;6.120;2022-08-20T11:52:24;13.25;;;5.70;;
58089;SDS011;45149;50.976;6.120;2022-08-20T11:54:50;11.38;;;5.22;;
58089;SDS011;45149;50.976;6.120;2022-08-20T11:57:19;12.90;;;5.43;;
58089;SDS011;45149;50.976;6.120;2022-08-20T11:59:49;12.15;;;4.82;;
58089;SDS011;45149;50.976;6.120;2022-08-20T12:02:15;12.43;;;5.50;;
58089;SDS011;45149;50.976;6.120;2022-08-20T12:04:41;10.02;;;4.43;;
58089;SDS011;45149;50.976;6.120;2022-08-20T12:07:09;9.77;;;4.90;;
58089;SDS011;45149;50.976;6.120;2022-08-20T12:09:37;10.82;;;4.90;;
58089;SDS011;45149;50.976;6.120;2022-08-20T12:12:02;11.07;;;5.10;;
58089;SDS011;45149;50.976;6.120;2022-08-20T12:14:28;10.95;;;5.30;;
58089;SDS011;45149;50.976;6.120;2022-08-20T12:16:53;9.82;;;5.05;;
58089;SDS011;45149;50.976;6.120;2022-08-20T12:19:19;10.23;;;4.63;;
58089;SDS011;45149;50.976;6.120;2022-08-20T12:21:44;11.95;;;4.63;;
58089;SDS011;45149;50.976;6.120;2022-08-20T12:24:09;10.10;;;4.10;;
58089;SDS011;45149;50.976;6.120;2022-08-20T12:26:35;9.43;;;4.30;;
58089;SDS011;45149;50.976;6.120;2022-08-20T12:29:00;9.38;;;3.92;;
58089;SDS011;45149;50.976;6.120;2022-08-20T12:31:25;9.82;;;3.30;;
58089;SDS011;45149;50.976;6.120;2022-08-20T12:33:51;8.52;;;3.63;;
58089;SDS011;45149;50.976;6.120;2022-08-20T12:36:16;12.23;;;3.40;;
58089;SDS011;45149;50.976;6.120;2022-08-20T12:38:42;8.00;;;3.33;;
58089;SDS011;45149;50.976;6.120;2022-08-20T12:41:07;12.18;;;3.20;;
58089;SDS011;45149;50.976;6.120;2022-08-20T12:43:32;8.45;;;2.95;;
58089;SDS011;45149;50.976;6.120;2022-08-20T12:45:58;9.25;;;2.75;;
58089;SDS011;45149;50.976;6.120;2022-08-20T12:48:23;7.35;;;2.90;;
58089;SDS011;45149;50.976;6.120;2022-08-20T12:50:48;10.45;;;3.40;;
58089;SDS011;45149;50.976;6.120;2022-08-20T12:53:14;9.65;;;3.63;;
58089;SDS011;45149;50.976;6.120;2022-08-20T12:55:40;8.35;;;3.35;;
58089;SDS011;45149;50.976;6.120;2022-08-20T12:58:06;8.60;;;3.97;;
58089;SDS011;45149;50.976;6.120;2022-08-20T13:00:34;8.50;;;3.47;;
58089;SDS011;45149;50.976;6.120;2022-08-20T13:03:02;7.97;;;3.55;;
58089;SDS011;45149;50.976;6.120;2022-08-20T13:05:29;8.48;;;3.25;;
58089;SDS011;45149;50.976;6.120;2022-08-20T13:07:56;6.80;;;3.17;;
58089;SDS011;45149;50.976;6.120;2022-08-20T13:10:27;6.72;;;2.40;;
58089;SDS011;45149;50.976;6.120;2022-08-20T13:12:55;7.80;;;2.33;;
58089;SDS011;45149;50.976;6.120;2022-08-20T13:15:21;9.45;;;2.70;;
58089;SDS011;45149;50.976;6.120;2022-08-20T13:17:53;8.05;;;2.90;;
58089;SDS011;45149;50.976;6.120;2022-08-20T13:20:20;7.00;;;3.08;;
58089;SDS011;45149;50.976;6.120;2022-08-20T13:22:49;7.43;;;3.05;;
58089;SDS011;45149;50.976;6.120;2022-08-20T13:25:15;6.78;;;2.55;;
58089;SDS011;45149;50.976;6.120;2022-08-20T13:27:42;8.10;;;2.70;;
58089;SDS011;45149;50.976;6.120;2022-08-20T13:30:09;7.20;;;2.90;;
58089;SDS011;45149;50.976;6.120;2022-08-20T13:32:37;6.85;;;2.97;;
58089;SDS011;45149;50.976;6.120;2022-08-20T13:35:02;7.32;;;2.80;;
58089;SDS011;45149;50.976;6.120;2022-08-20T13:37:28;5.97;;;2.53;;
58089;SDS011;45149;50.976;6.120;2022-08-20T13:39:54;6.28;;;2.53;;
58089;SDS011;45149;50.976;6.120;2022-08-20T13:42:21;5.95;;;2.60;;
58089;SDS011;45149;50.976;6.120;2022-08-20T13:44:46;6.22;;;2.85;;
58089;SDS011;45149;50.976;6.120;2022-08-20T13:47:16;6.57;;;2.88;;
58089;SDS011;45149;50.976;6.120;2022-08-20T13:49:56;6.97;;;2.92;;
58089;SDS011;45149;50.976;6.120;2022-08-20T13:52:29;8.48;;;3.53;;
58089;SDS011;45149;50.976;6.120;2022-08-20T13:54:55;7.40;;;2.90;;
58089;SDS011;45149;50.976;6.120;2022-08-20T13:57:21;7.10;;;2.90;;
58089;SDS011;45149;50.976;6.120;2022-08-20T13:59:48;8.45;;;3.17;;
58089;SDS011;45149;50.976;6.120;2022-08-20T14:02:15;6.50;;;2.67;;
58089;SDS011;45149;50.976;6.120;2022-08-20T14:04:41;7.18;;;3.22;;
58089;SDS011;45149;50.976;6.120;2022-08-20T14:07:08;7.07;;;3.30;;
58089;SDS011;45149;50.976;6.120;2022-08-20T14:09:42;9.55;;;3.63;;
58089;SDS011;45149;50.976;6.120;2022-08-20T14:12:09;7.78;;;3.40;;
58089;SDS011;45149;50.976;6.120;2022-08-20T14:14:37;6.35;;;2.80;;
58089;SDS011;45149;50.976;6.120;2022-08-20T14:17:15;6.28;;;3.20;;
58089;SDS011;45149;50.976;6.120;2022-08-20T14:20:04;8.38;;;3.17;;
58089;SDS011;45149;50.976;6.120;2022-08-20T14:22:30;7.40;;;3.42;;
58089;SDS011;45149;50.976;6.120;2022-08-20T14:24:56;8.20;;;3.58;;
58089;SDS011;45149;50.976;6.120;2022-08-20T14:27:23;8.57;;;3.33;;
58089;SDS011;45149;50.976;6.120;2022-08-20T14:29:48;5.97;;;3.47;;
58089;SDS011;45149;50.976;6.120;2022-08-20T14:32:14;7.43;;;3.47;;
58089;SDS011;45149;50.976;6.120;2022-08-20T14:34:40;8.63;;;3.47;;